Tomahawk, WI

5:39 AM CDT on May 28, 2018 (GMT -0500)
Tomahawk

Weather History for KTKV - January, 2014

Change the Weather History Date:

Monday, January 6, 2014

  Actual Average (KRHI) Record (KRHI)
Temperature  
Mean Temperature -23 °F -  
Max Temperature -17 °F 18 °F 43 °F (1928)
Min Temperature -29 °F 1 °F -40 °F (1912)
Degree Days  
Heating Degree Days 88    
Moisture  
Dew Point -31 °F    
Average Humidity 64    
Maximum Humidity 71    
Minimum Humidity 54    
Precipitation  
Precipitation 0.00 in - - ()
Sea Level Pressure  
Sea Level Pressure 29.96 in    
Wind  
Wind Speed 10 mph (West)    
Max Wind Speed 16 mph    
Max Gust Speed 20 mph    
Visibility 9 miles    
Events      
Averages and records for this station are not official NWS values.
T = Trace of Precipitation, MM = Missing Value Source: NWS Daily Summary

Daily Weather History Graph

Daily Weather History Graph

Search for Another Location

Airport or City:

Astronomy

Jan. 06, 2014 Rise Set
Actual Time 7:38 AM CST 4:31 PM CST
Civil Twilight 7:05 AM CST 5:05 PM CST
Nautical Twilight 6:27 AM CST 5:42 PM CST
Astronomical Twilight 5:52 AM CST 6:18 PM CST
Moon 10:35 AM CST (1/6) 11:25 PM CST (1/6)
Length of Visible Light 10h 00m
Length of Day
8h 52m
Waxing Crescent, 35% of the Moon is Illuminated
Jan 6
Waxing Crescent
Jan 7
First Quarter
Jan 15
Full
Jan 23
Last Quarter
Jan 30
New

Hourly Weather History & Observations

Time (CST) Temp. Windchill Dew Point Humidity Pressure Visibility Wind Dir Wind Speed Gust Speed Precip Events Conditions
12:15 AM -19.3 °F -40.2 °F -26.0 °F 71% 29.99 in 10.0 mi WNW 10.4 mph 16.1 mph N/A   Clear
12:35 AM -19.5 °F -40.4 °F -26.5 °F 70% 29.99 in 10.0 mi WNW 10.4 mph 16.1 mph N/A   Clear
12:55 AM -20.2 °F -40.1 °F -27.2 °F 70% 29.99 in 10.0 mi WNW 9.2 mph - N/A   Clear
1:15 AM -20.4 °F -40.3 °F -27.4 °F 70% 29.98 in 10.0 mi WNW 9.2 mph 17.3 mph N/A   Clear
1:35 AM -20.7 °F -42.0 °F -27.6 °F 71% 29.99 in 10.0 mi WNW 10.4 mph 17.3 mph N/A   Clear
1:55 AM -21.1 °F -39.9 °F -28.3 °F 69% 29.99 in 10.0 mi WNW 8.1 mph 16.1 mph N/A   Clear
2:15 AM -21.6 °F -40.5 °F -28.7 °F 70% 29.99 in 10.0 mi WNW 8.1 mph - N/A   Clear
2:35 AM -22.4 °F -42.8 °F -29.2 °F 70% 29.99 in 10.0 mi WNW 9.2 mph - N/A   Clear
3:15 AM -22.9 °F -46.8 °F -29.6 °F 71% 29.99 in 10.0 mi WNW 12.7 mph 17.3 mph N/A   Scattered Clouds
3:35 AM -23.3 °F -43.9 °F -30.1 °F 70% 29.99 in 10.0 mi WNW 9.2 mph - N/A   Scattered Clouds
3:55 AM -23.4 °F -46.5 °F -30.8 °F 68% 29.99 in 10.0 mi WNW 11.5 mph - N/A   Mostly Cloudy
4:15 AM -23.8 °F -44.5 °F -31.2 °F 68% 29.99 in 10.0 mi WNW 9.2 mph - N/A   Overcast
4:35 AM -24.0 °F -44.8 °F -31.5 °F 68% 29.99 in 10.0 mi WNW 9.2 mph - N/A   Overcast
4:55 AM -24.2 °F -48.4 °F -31.9 °F 67% 29.99 in 10.0 mi WNW 12.7 mph 18.4 mph N/A   Overcast
5:15 AM -24.2 °F -46.2 °F -31.9 °F 67% 29.99 in 10.0 mi WNW 10.4 mph 17.3 mph N/A   Overcast
5:35 AM -24.7 °F -46.9 °F -32.8 °F 66% 30.00 in 10.0 mi WNW 10.4 mph - N/A   Overcast
5:55 AM -25.4 °F -45.1 °F -33.5 °F 66% 29.99 in 10.0 mi WNW 8.1 mph - N/A   Overcast
6:15 AM -26.5 °F -49.2 °F -34.6 °F 65% 29.99 in 10.0 mi WNW 10.4 mph - N/A   Overcast
6:35 AM -26.9 °F -46.9 °F -34.6 °F 67% 29.99 in 10.0 mi WNW 8.1 mph - N/A   Mostly Cloudy
6:55 AM -27.4 °F -44.1 °F -35.0 °F 67% 29.99 in 10.0 mi West 5.8 mph - N/A   Overcast
7:15 AM -27.9 °F -50.9 °F -35.5 °F 67% 29.99 in 10.0 mi West 10.4 mph - N/A   Scattered Clouds
7:35 AM -28.3 °F -51.4 °F -35.5 °F 68% 29.99 in 10.0 mi West 10.4 mph - N/A   Mostly Cloudy
7:55 AM -28.7 °F -50.5 °F -36.6 °F 66% 29.99 in 10.0 mi West 9.2 mph 17.3 mph N/A   Mostly Cloudy
8:15 AM -29.2 °F -49.7 °F -37.3 °F 65% 29.99 in 10.0 mi West 8.1 mph - N/A   Clear
8:35 AM -29.2 °F -49.7 °F -38.0 °F 63% 30.00 in 10.0 mi West 8.1 mph - N/A   Clear
8:55 AM -28.8 °F -49.3 °F -37.3 °F 64% 30.00 in 7.0 mi West 8.1 mph - N/A   Clear
9:15 AM -26.9 °F -50.8 °F -35.7 °F 63% 30.00 in 5.0 mi West 11.5 mph 16.1 mph N/A   Haze
9:35 AM -26.5 °F -50.3 °F -36.2 °F 60% 30.00 in 7.0 mi West 11.5 mph - N/A   Overcast
9:55 AM -25.2 °F -48.7 °F -35.1 °F 60% 30.00 in 7.0 mi West 11.5 mph 16.1 mph N/A   Mostly Cloudy
10:15 AM -24.3 °F -48.7 °F -34.6 °F 59% 29.99 in 5.0 mi West 12.7 mph 17.3 mph N/A   Haze
10:35 AM -23.8 °F -46.9 °F -34.6 °F 57% 29.99 in 7.0 mi West 11.5 mph 17.3 mph N/A   Overcast
10:55 AM -22.9 °F -46.8 °F -32.8 °F 60% 29.98 in 3.0 mi West 12.7 mph - N/A   Haze
11:15 AM -21.6 °F -46.2 °F -31.9 °F 59% 29.97 in 4.0 mi West 13.8 mph 18.4 mph N/A   Haze
11:35 AM -21.5 °F -41.7 °F -31.4 °F 60% 29.96 in 4.0 mi West 9.2 mph - N/A   Haze
11:55 AM -21.1 °F -42.4 °F -31.4 °F 59% 29.95 in 10.0 mi West 10.4 mph 18.4 mph N/A   Overcast
12:15 PM -20.2 °F -41.3 °F -31.2 °F 57% 29.95 in 10.0 mi West 10.4 mph 18.4 mph N/A   Overcast
12:35 PM -18.9 °F -39.8 °F -30.3 °F 56% 29.94 in 10.0 mi West 10.4 mph 18.4 mph N/A   Mostly Cloudy
12:55 PM -18.4 °F -41.2 °F -30.1 °F 55% 29.93 in 10.0 mi West 12.7 mph - N/A   Mostly Cloudy
1:15 PM -17.7 °F -39.3 °F -29.7 °F 54% 29.93 in 10.0 mi West 11.5 mph 17.3 mph N/A   Scattered Clouds
1:35 PM -17.5 °F -36.8 °F -29.4 °F 55% 29.93 in 10.0 mi West 9.2 mph - N/A   Scattered Clouds
1:55 PM -17.3 °F -41.5 °F -29.6 °F 54% 29.93 in 10.0 mi West 15.0 mph 18.4 mph N/A   Overcast
2:15 PM -17.1 °F -39.6 °F -29.2 °F 54% 29.93 in 10.0 mi West 12.7 mph 18.4 mph N/A   Scattered Clouds
2:35 PM -17.7 °F -42.8 °F -29.2 °F 56% 29.93 in 10.0 mi West 16.1 mph - N/A   Clear
2:55 PM -17.5 °F -40.0 °F -29.2 °F 55% 29.94 in 10.0 mi West 12.7 mph 19.6 mph N/A   Scattered Clouds
3:15 PM -17.9 °F -40.5 °F -29.2 °F 56% 29.94 in 10.0 mi West 12.7 mph - N/A   Clear
3:35 PM -18.6 °F -39.3 °F -29.2 °F 58% 29.95 in 10.0 mi West 10.4 mph 17.3 mph N/A   Clear
3:55 PM -18.9 °F -35.8 °F -29.2 °F 59% 29.95 in 10.0 mi West 6.9 mph - N/A   Scattered Clouds
4:15 PM -18.9 °F -38.6 °F -28.5 °F 62% 29.95 in 10.0 mi West 9.2 mph - N/A   Scattered Clouds
4:35 PM -18.9 °F -35.8 °F -28.7 °F 61% 29.95 in 10.0 mi WSW 6.9 mph - N/A   Clear
4:55 PM -19.3 °F -40.2 °F -28.5 °F 63% 29.95 in 10.0 mi West 10.4 mph 16.1 mph N/A   Scattered Clouds
5:15 PM -19.8 °F -38.3 °F -29.2 °F 62% 29.95 in 10.0 mi West 8.1 mph - N/A   Scattered Clouds
5:35 PM -20.4 °F -40.3 °F -29.4 °F 63% 29.95 in 10.0 mi West 9.2 mph - N/A   Scattered Clouds
5:55 PM -20.4 °F -35.7 °F -29.2 °F 64% 29.95 in 10.0 mi West 5.8 mph - N/A   Clear
6:15 PM -20.4 °F -33.7 °F -29.0 °F 64% 29.95 in 10.0 mi West 4.6 mph - N/A   Clear
6:35 PM -20.4 °F -35.7 °F -28.5 °F 66% 29.95 in 10.0 mi West 5.8 mph - N/A   Clear
6:55 PM -20.6 °F -40.6 °F -28.8 °F 66% 29.95 in 10.0 mi West 9.2 mph - N/A   Clear
7:15 PM -20.4 °F -33.7 °F -28.5 °F 66% 29.95 in 10.0 mi WSW 4.6 mph - N/A   Clear
7:35 PM -20.7 °F -34.1 °F -28.5 °F 67% 29.95 in 10.0 mi WSW 4.6 mph - N/A   Clear
7:55 PM -20.9 °F -38.1 °F -28.5 °F 68% 29.95 in 10.0 mi West 6.9 mph - N/A   Clear
8:15 PM -20.6 °F -40.6 °F -28.3 °F 67% 29.95 in 10.0 mi West 9.2 mph - N/A   Scattered Clouds
8:35 PM -20.6 °F -39.2 °F -28.3 °F 67% 29.95 in 10.0 mi West 8.1 mph 16.1 mph N/A   Mostly Cloudy
8:55 PM -20.7 °F -39.4 °F -28.5 °F 67% 29.95 in 10.0 mi West 8.1 mph - N/A   Scattered Clouds
9:15 PM -20.7 °F -39.4 °F -28.5 °F 67% 29.95 in 10.0 mi West 8.1 mph 19.6 mph N/A   Scattered Clouds
9:35 PM -21.3 °F -38.6 °F -28.7 °F 69% 29.94 in 10.0 mi West 6.9 mph 16.1 mph N/A   Clear
9:55 PM -21.5 °F -38.8 °F -29.2 °F 67% 29.94 in 10.0 mi West 6.9 mph - N/A   Clear
10:15 PM -22.0 °F -41.0 °F -29.2 °F 69% 29.94 in 10.0 mi West 8.1 mph - N/A   Clear
10:35 PM -22.0 °F -42.3 °F -29.2 °F 69% 29.93 in 10.0 mi West 9.2 mph - N/A   Clear
10:55 PM -22.0 °F -43.6 °F -29.2 °F 69% 29.94 in 10.0 mi West 10.4 mph - N/A   Clear
11:15 PM -21.3 °F -41.4 °F -28.5 °F 69% 29.93 in 10.0 mi West 9.2 mph 16.1 mph N/A   Clear
11:35 PM -21.6 °F -40.5 °F -28.8 °F 69% 29.92 in 10.0 mi West 8.1 mph - N/A   Clear
11:55 PM -21.8 °F -43.3 °F -28.8 °F 70% 29.92 in 10.0 mi West 10.4 mph - N/A   Clear